createdAt,value
2017-10-17T00:00:25.107Z,101592.81
2017-10-17T00:05:28.200Z,101593.82
2017-10-17T00:10:30.960Z,101600.17
2017-10-17T00:15:33.990Z,101598.08
2017-10-17T00:20:37.078Z,101599.32
2017-10-17T00:25:40.109Z,101605.11
2017-10-17T00:30:44.678Z,101600.84
2017-10-17T00:35:51.348Z,101595.13
2017-10-17T00:40:54.461Z,101596.33
2017-10-17T00:46:02.085Z,101594.77
2017-10-17T00:51:10.102Z,101592.19
2017-10-17T00:56:12.874Z,101597.08
2017-10-17T01:01:15.876Z,101586.89
2017-10-17T01:06:19.496Z,101595.67
2017-10-17T01:11:22.528Z,101588.31
2017-10-17T01:16:26.224Z,101591.27
2017-10-17T01:21:29.249Z,101579.07
2017-10-17T01:26:32.324Z,101587.70
2017-10-17T01:31:34.510Z,101586.27
2017-10-17T01:36:39.299Z,101581.37
2017-10-17T01:41:42.132Z,101573.06
2017-10-17T01:46:49.787Z,101577.18
2017-10-17T01:51:59.286Z,101572.60
2017-10-17T01:57:02.382Z,101568.36
2017-10-17T02:02:04.849Z,101567.62
2017-10-17T02:07:07.376Z,101565.19
2017-10-17T02:12:10.448Z,101568.59
2017-10-17T02:17:13.453Z,101564.98
2017-10-17T02:22:17.435Z,101570.36
2017-10-17T02:27:22.082Z,101573.68
2017-10-17T02:32:24.123Z,101576.50
2017-10-17T02:37:27.912Z,101569.58
2017-10-17T02:42:30.755Z,101563.44
2017-10-17T02:47:36.196Z,101564.21
2017-10-17T02:52:42.991Z,101567.91
2017-10-17T02:57:46.684Z,101560.06
2017-10-17T03:02:49.805Z,101572.20
2017-10-17T03:07:52.568Z,101574.91
2017-10-17T03:12:55.579Z,101575.09
2017-10-17T03:18:02.538Z,101570.25
2017-10-17T03:23:18.087Z,101576.50
2017-10-17T03:28:27.259Z,101576.12
2017-10-17T03:33:30.121Z,101581.53
2017-10-17T03:38:42.864Z,101589.35
2017-10-17T03:49:38.584Z,101592.75
2017-10-17T03:54:43.437Z,101600.76
2017-10-17T03:59:50.306Z,101599.92
2017-10-17T04:11:12.996Z,101612.66
2017-10-17T04:16:34.193Z,101608.83
2017-10-17T04:27:20.487Z,101611.03
2017-10-17T04:32:22.548Z,101611.16
2017-10-17T04:37:40.495Z,101619.56
2017-10-17T04:43:03.544Z,101618.14
2017-10-17T04:48:33.316Z,101625.67
2017-10-17T04:59:58.280Z,101634.78
2017-10-17T05:05:14.120Z,101636.30
2017-10-17T05:10:24.871Z,101646.91
2017-10-17T05:15:27.880Z,101639.43
2017-10-17T05:20:49.641Z,101644.27
2017-10-17T05:25:51.692Z,101648.17
2017-10-17T05:31:11.440Z,101647.97
2017-10-17T05:36:14.333Z,101655.00
2017-10-17T05:41:17.212Z,101660.84
2017-10-17T05:46:19.315Z,101658.50
2017-10-17T05:51:25.580Z,101661.16
2017-10-17T05:56:27.510Z,101654.16
2017-10-17T06:01:29.507Z,101667.30
2017-10-17T06:06:31.441Z,101670.19
2017-10-17T06:11:33.453Z,101680.70
2017-10-17T06:16:35.468Z,101679.32
2017-10-17T06:21:38.145Z,101688.28
2017-10-17T06:26:40.051Z,101691.13
2017-10-17T06:31:41.987Z,101694.78
2017-10-17T06:36:43.927Z,101691.52
2017-10-17T06:41:45.948Z,101697.44
2017-10-17T06:46:47.999Z,101694.11
2017-10-17T06:51:50.053Z,101689.72
2017-10-17T06:56:52.139Z,101698.38
2017-10-17T07:01:54.816Z,101704.55
2017-10-17T07:06:56.877Z,101710.38
2017-10-17T07:11:58.781Z,101716.23
2017-10-17T07:17:00.815Z,101718.67
2017-10-17T07:22:02.792Z,101730.66
2017-10-17T07:27:04.841Z,101726.72
2017-10-17T07:32:06.860Z,101727.38
2017-10-17T07:37:08.868Z,101725.64
2017-10-17T07:42:10.845Z,101726.77
2017-10-17T07:47:12.805Z,101720.70
2017-10-17T07:52:15.721Z,101722.68
2017-10-17T07:57:18.457Z,101727.12
2017-10-17T08:02:20.475Z,101716.50
2017-10-17T08:07:22.537Z,101717.06
2017-10-17T08:12:25.208Z,101721.33
2017-10-17T08:17:31.171Z,101715.05
2017-10-17T08:22:33.111Z,101716.25
2017-10-17T08:27:36.947Z,101722.27
2017-10-17T08:32:39.248Z,101715.87
2017-10-17T08:37:42.581Z,101708.83
2017-10-17T08:42:44.799Z,101708.42
2017-10-17T08:47:46.836Z,101706.22
2017-10-17T08:52:52.190Z,101708.84
2017-10-17T08:58:01.011Z,101716.75
2017-10-17T09:03:03.327Z,101717.27
2017-10-17T09:08:05.276Z,101725.28
2017-10-17T09:13:07.221Z,101725.30
2017-10-17T09:18:09.191Z,101724.08
2017-10-17T09:23:11.108Z,101716.77
2017-10-17T09:28:13.025Z,101728.02
2017-10-17T09:33:14.916Z,101730.95
2017-10-17T09:38:16.897Z,101727.98
2017-10-17T09:43:18.805Z,101730.30
2017-10-17T09:48:20.750Z,101725.57
2017-10-17T09:53:22.715Z,101726.84
2017-10-17T09:58:24.648Z,101719.33
2017-10-17T10:03:26.561Z,101729.91
2017-10-17T10:08:28.539Z,101723.30
2017-10-17T10:13:30.448Z,101730.33
2017-10-17T10:18:32.464Z,101724.75
2017-10-17T10:23:34.378Z,101723.58
2017-10-17T10:28:36.306Z,101729.53
2017-10-17T10:33:38.966Z,101725.85
2017-10-17T10:38:41.026Z,101723.27
2017-10-17T10:43:42.952Z,101715.33
2017-10-17T10:48:44.989Z,101716.73
2017-10-17T10:53:46.943Z,101708.19
2017-10-17T10:58:49.086Z,101704.20
2017-10-17T11:03:51.037Z,101707.59
2017-10-17T11:08:53.023Z,101698.76
2017-10-17T11:13:54.943Z,101687.70
2017-10-17T11:18:56.846Z,101674.59
2017-10-17T11:23:58.759Z,101673.67
2017-10-17T11:29:00.770Z,101672.33
2017-10-17T11:34:02.808Z,101663.51
2017-10-17T11:39:04.771Z,101656.72
2017-10-17T11:44:11.524Z,101648.11
2017-10-17T11:49:14.512Z,101640.58
2017-10-17T11:54:16.484Z,101634.08
2017-10-17T11:59:18.460Z,101635.12
2017-10-17T12:04:21.839Z,101625.91
2017-10-17T12:09:28.005Z,101622.93
2017-10-17T12:14:36.033Z,101614.23
2017-10-17T12:19:41.936Z,101607.39
2017-10-17T12:24:46.119Z,101604.26
2017-10-17T12:29:49.629Z,101603.13
2017-10-17T12:34:53.683Z,101593.33
2017-10-17T12:39:57.714Z,101587.17
2017-10-17T12:45:07.615Z,101577.13
2017-10-17T12:50:11.501Z,101574.73
2017-10-17T12:55:14.801Z,101578.89
2017-10-17T13:00:17.521Z,101576.80
2017-10-17T13:05:20.151Z,101561.39
2017-10-17T13:10:23.799Z,101557.17
2017-10-17T13:15:28.189Z,101557.07
2017-10-17T13:20:31.030Z,101546.77
2017-10-17T13:25:34.192Z,101548.22
2017-10-17T13:30:37.674Z,101544.53
2017-10-17T13:35:40.616Z,101542.53
2017-10-17T13:40:44.670Z,101543.63
2017-10-17T13:45:47.538Z,101537.74
2017-10-17T13:50:52.052Z,101526.63
2017-10-17T13:55:54.857Z,101516.03
2017-10-17T14:00:57.564Z,101516.66
2017-10-17T14:06:00.756Z,101507.25
2017-10-17T14:11:07.827Z,101502.03
2017-10-17T14:16:10.239Z,101506.78
2017-10-17T14:21:12.306Z,101516.89
2017-10-17T14:26:14.364Z,101513.33
2017-10-17T14:31:16.991Z,101507.87
2017-10-17T14:36:19.664Z,101501.62
2017-10-17T14:41:23.107Z,101502.77
2017-10-17T14:46:28.555Z,101491.91
2017-10-17T14:51:31.574Z,101494.37
2017-10-17T14:56:34.267Z,101490.00
2017-10-17T15:01:36.910Z,101489.55
2017-10-17T15:06:40.136Z,101493.28
2017-10-17T15:11:47.852Z,101488.29
2017-10-17T15:16:59.317Z,101484.48
2017-10-17T15:22:05.410Z,101482.66
2017-10-17T15:27:09.329Z,101474.67
2017-10-17T15:32:12.622Z,101470.58
2017-10-17T15:37:15.734Z,101455.00
2017-10-17T15:42:18.736Z,101471.36
2017-10-17T15:47:24.033Z,101465.19
2017-10-17T15:52:27.728Z,101456.65
2017-10-17T15:57:30.475Z,101449.67
2017-10-17T16:02:33.124Z,101445.72
2017-10-17T16:07:36.011Z,101444.23
2017-10-17T16:12:39.059Z,101440.48
2017-10-17T16:17:44.583Z,101439.84
2017-10-17T16:22:50.175Z,101450.34
2017-10-17T16:27:53.267Z,101450.02
2017-10-17T16:32:57.784Z,101457.14
2017-10-17T16:38:02.178Z,101453.95
2017-10-17T16:43:05.279Z,101448.21
2017-10-17T16:48:08.144Z,101441.73
2017-10-17T16:53:11.351Z,101445.38
2017-10-17T16:58:18.956Z,101445.49
2017-10-17T17:03:23.259Z,101435.72
2017-10-17T17:08:25.948Z,101427.66
2017-10-17T17:13:29.770Z,101429.11
2017-10-17T17:18:35.032Z,101439.11
2017-10-17T17:23:38.009Z,101450.69
2017-10-17T17:28:40.955Z,101451.80
2017-10-17T17:33:44.473Z,101451.88
2017-10-17T17:38:47.286Z,101445.64
2017-10-17T17:43:50.516Z,101451.31
2017-10-17T17:48:54.152Z,101451.42
2017-10-17T17:53:58.861Z,101456.66
2017-10-17T17:59:02.068Z,101446.93
2017-10-17T18:04:05.452Z,101446.89
2017-10-17T18:09:09.704Z,101443.00
2017-10-17T18:14:14.410Z,101456.44
2017-10-17T18:19:18.831Z,101445.70
2017-10-17T18:24:23.610Z,101438.84
2017-10-17T18:29:27.452Z,101430.58
2017-10-17T18:34:31.902Z,101434.34
2017-10-17T18:39:40.714Z,101421.03
2017-10-17T18:44:48.602Z,101426.67
2017-10-17T18:49:53.569Z,101424.16
2017-10-17T18:54:57.454Z,101413.00
2017-10-17T19:00:02.323Z,101416.36
2017-10-17T19:05:08.306Z,101406.81
2017-10-17T19:10:11.247Z,101398.95
2017-10-17T19:15:14.096Z,101403.66
2017-10-17T19:20:17.285Z,101400.53
2017-10-17T19:25:20.182Z,101396.41
2017-10-17T19:30:23.470Z,101395.91
2017-10-17T19:35:28.144Z,101398.01
2017-10-17T19:40:35.341Z,101393.84
2017-10-17T19:45:38.638Z,101397.50
2017-10-17T19:50:41.589Z,101397.30
2017-10-17T19:55:46.607Z,101393.48
2017-10-17T20:00:50.175Z,101392.97
2017-10-17T20:05:53.618Z,101386.80
2017-10-17T20:10:57.180Z,101386.31
2017-10-17T20:16:00.134Z,101384.28
2017-10-17T20:21:03.088Z,101392.87
2017-10-17T20:26:07.958Z,101394.20
2017-10-17T20:31:12.598Z,101397.30
2017-10-17T20:36:16.470Z,101398.00
2017-10-17T20:41:19.367Z,101383.44
2017-10-17T20:46:22.165Z,101385.75
2017-10-17T20:51:25.251Z,101390.95
2017-10-17T20:56:27.203Z,101393.47
2017-10-17T21:01:33.364Z,101301.87
2017-10-17T21:06:36.058Z,101396.98
2017-10-17T21:11:38.823Z,101391.34
2017-10-17T21:16:41.686Z,101387.77
2017-10-17T21:21:44.612Z,101389.97
2017-10-17T21:26:48.309Z,101392.37
2017-10-17T21:31:51.240Z,101380.29
2017-10-17T21:36:53.986Z,101382.42
2017-10-17T21:41:57.936Z,101378.75
2017-10-17T21:47:01.618Z,101373.63
2017-10-17T21:52:04.306Z,101372.59
2017-10-17T21:57:07.410Z,101371.27
2017-10-17T22:02:11.462Z,101374.20
2017-10-17T22:07:14.477Z,101366.94
2017-10-17T22:12:17.380Z,101368.41
2017-10-17T22:17:20.836Z,101357.67
2017-10-17T22:22:23.669Z,101360.41
2017-10-17T22:27:26.523Z,101360.89
2017-10-17T22:32:29.349Z,101357.88
2017-10-17T22:37:33.132Z,101354.48
2017-10-17T22:42:36.868Z,101365.43
2017-10-17T22:47:39.851Z,101366.25
2017-10-17T22:52:42.423Z,101366.55
2017-10-17T22:57:46.180Z,101365.03
2017-10-17T23:02:48.878Z,101362.87
2017-10-17T23:07:51.743Z,101357.97
2017-10-17T23:12:54.551Z,101347.30
2017-10-17T23:18:15.317Z,101339.33
2017-10-17T23:23:18.379Z,101342.98
2017-10-17T23:33:31.420Z,101348.74
2017-10-17T23:38:34.841Z,101341.39
2017-10-17T23:43:38.429Z,101350.07
2017-10-17T23:48:41.204Z,101347.20
2017-10-17T23:53:44.108Z,101335.75
2017-10-17T23:58:47.028Z,101330.38
